createdAt,value
2019-02-23T00:01:33.566Z,9.60
2019-02-23T00:04:04.572Z,9.47
2019-02-23T00:06:35.640Z,9.57
2019-02-23T00:09:07.252Z,10.53
2019-02-23T00:11:39.192Z,11.33
2019-02-23T00:14:10.022Z,10.73
2019-02-23T00:16:41.092Z,11.33
2019-02-23T00:19:11.953Z,11.30
2019-02-23T00:21:43.735Z,12.37
2019-02-23T00:24:14.723Z,11.80
2019-02-23T00:26:45.672Z,11.77
2019-02-23T00:29:16.731Z,11.93
2019-02-23T00:31:47.711Z,11.53
2019-02-23T00:34:18.773Z,10.90
2019-02-23T00:36:49.901Z,11.20
2019-02-23T00:39:20.847Z,10.87
2019-02-23T00:41:51.849Z,11.30
2019-02-23T00:44:22.848Z,11.20
2019-02-23T00:46:53.845Z,11.47
2019-02-23T00:49:35.537Z,12.10
2019-02-23T00:51:57.459Z,12.10
2019-02-23T00:54:28.202Z,12.03
2019-02-23T00:56:59.191Z,11.47
2019-02-23T00:59:29.976Z,12.03
2019-02-23T01:02:00.840Z,12.20
2019-02-23T01:04:31.594Z,11.43
2019-02-23T01:07:02.598Z,11.87
2019-02-23T01:09:33.346Z,11.73
2019-02-23T01:12:04.524Z,12.33
2019-02-23T01:14:35.338Z,12.70
2019-02-23T01:17:06.730Z,12.20
2019-02-23T01:19:47.445Z,12.70
2019-02-23T01:22:11.391Z,12.97
2019-02-23T01:24:42.133Z,13.07
2019-02-23T01:27:13.215Z,12.10
2019-02-23T01:29:43.974Z,12.97
2019-02-23T01:32:14.958Z,13.33
2019-02-23T01:34:45.929Z,11.93
2019-02-23T01:37:16.918Z,12.73
2019-02-23T01:39:47.982Z,12.43
2019-02-23T01:42:18.738Z,12.97
2019-02-23T01:44:49.743Z,12.17
2019-02-23T01:47:21.115Z,12.83
2019-02-23T01:49:58.962Z,12.90
2019-02-23T01:52:24.569Z,12.93
2019-02-23T01:54:55.572Z,13.07
2019-02-23T01:57:26.626Z,13.20
2019-02-23T01:59:58.056Z,13.47
2019-02-23T02:02:29.564Z,13.43
2019-02-23T02:05:00.389Z,12.90
2019-02-23T02:07:31.235Z,13.27
2019-02-23T02:10:04.362Z,13.57
2019-02-23T02:12:35.546Z,13.37
2019-02-23T02:15:11.230Z,13.20
2019-02-23T02:17:42.086Z,13.63
2019-02-23T02:20:13.179Z,12.73
2019-02-23T02:22:44.254Z,12.80
2019-02-23T02:25:15.200Z,13.47
2019-02-23T02:27:46.359Z,13.13
2019-02-23T02:30:18.431Z,13.27
2019-02-23T02:32:49.469Z,13.10
2019-02-23T02:35:20.191Z,12.53
2019-02-23T02:37:51.441Z,13.07
2019-02-23T02:40:23.460Z,13.10
2019-02-23T02:42:54.338Z,12.43
2019-02-23T02:45:25.090Z,12.53
2019-02-23T02:47:55.845Z,12.97
2019-02-23T02:50:27.172Z,13.30
2019-02-23T02:52:58.165Z,13.70
2019-02-23T02:55:28.916Z,13.73
2019-02-23T02:57:59.935Z,12.90
2019-02-23T03:00:31.370Z,14.30
2019-02-23T03:03:02.400Z,13.80
2019-02-23T03:05:33.637Z,13.90
2019-02-23T03:08:04.696Z,12.43
2019-02-23T03:10:35.947Z,13.20
2019-02-23T03:13:07.525Z,13.87
2019-02-23T03:15:38.498Z,13.13
2019-02-23T03:18:09.259Z,13.83
2019-02-23T03:20:40.287Z,13.57
2019-02-23T03:23:12.637Z,13.33
2019-02-23T03:25:44.653Z,14.07
2019-02-23T03:28:15.670Z,14.00
2019-02-23T03:30:46.494Z,14.20
2019-02-23T03:33:17.590Z,14.20
2019-02-23T03:35:48.334Z,14.23
2019-02-23T03:38:19.809Z,13.90
2019-02-23T03:40:50.819Z,14.60
2019-02-23T03:43:22.112Z,13.50
2019-02-23T03:45:53.139Z,14.17
2019-02-23T03:48:23.898Z,13.73
2019-02-23T03:50:54.993Z,14.47
2019-02-23T03:53:26.441Z,14.80
2019-02-23T03:55:58.045Z,14.80
2019-02-23T03:58:29.303Z,15.03
2019-02-23T04:01:00.706Z,14.57
2019-02-23T04:03:31.468Z,14.63
2019-02-23T04:06:02.209Z,14.67
2019-02-23T04:08:33.252Z,15.03
2019-02-23T04:11:04.225Z,14.70
2019-02-23T04:13:35.644Z,15.10
2019-02-23T04:16:06.385Z,14.80
2019-02-23T04:18:37.506Z,14.70
2019-02-23T04:21:08.795Z,15.13
2019-02-23T04:23:40.018Z,15.53
2019-02-23T04:26:10.994Z,15.70
2019-02-23T04:28:42.127Z,15.77
2019-02-23T04:31:13.113Z,15.30
2019-02-23T04:33:43.939Z,15.60
2019-02-23T04:36:14.723Z,16.27
2019-02-23T04:38:45.718Z,15.90
2019-02-23T04:41:17.198Z,15.73
2019-02-23T04:43:47.963Z,16.07
2019-02-23T04:46:18.849Z,16.07
2019-02-23T04:48:49.821Z,16.07
2019-02-23T04:51:21.062Z,16.87
2019-02-23T04:53:51.834Z,15.60
2019-02-23T04:56:22.693Z,16.27
2019-02-23T04:58:53.569Z,15.07
2019-02-23T05:01:24.842Z,16.90
2019-02-23T05:03:55.877Z,16.53
2019-02-23T05:06:26.778Z,17.07
2019-02-23T05:08:58.165Z,16.70
2019-02-23T05:11:28.932Z,16.00
2019-02-23T05:13:59.985Z,15.70
2019-02-23T05:16:31.281Z,16.33
2019-02-23T05:19:03.262Z,16.00
2019-02-23T05:21:34.017Z,16.13
2019-02-23T05:24:05.006Z,15.57
2019-02-23T05:26:35.755Z,15.83
2019-02-23T05:29:06.624Z,16.17
2019-02-23T05:31:37.569Z,16.13
2019-02-23T05:34:08.589Z,16.10
2019-02-23T05:36:39.902Z,15.50
2019-02-23T05:39:10.906Z,15.60
2019-02-23T05:41:41.839Z,16.13
2019-02-23T05:44:13.221Z,16.10
2019-02-23T05:46:44.335Z,16.17
2019-02-23T05:49:15.667Z,15.73
2019-02-23T05:51:46.727Z,17.17
2019-02-23T05:54:17.716Z,17.03
2019-02-23T05:56:48.772Z,16.00
2019-02-23T05:59:19.522Z,16.27
2019-02-23T06:01:50.754Z,17.47
2019-02-23T06:04:21.766Z,17.77
2019-02-23T06:06:52.827Z,17.83
2019-02-23T06:09:23.657Z,16.80
2019-02-23T06:11:54.664Z,16.73
2019-02-23T06:14:25.959Z,17.07
2019-02-23T06:16:56.778Z,15.33
2019-02-23T06:19:28.091Z,16.67
2019-02-23T06:21:59.310Z,16.60
2019-02-23T06:24:30.317Z,17.37
2019-02-23T06:27:01.562Z,17.70
2019-02-23T06:29:32.570Z,17.43
2019-02-23T06:32:03.450Z,17.07
2019-02-23T06:34:34.211Z,17.00
2019-02-23T06:37:05.433Z,16.93
2019-02-23T06:39:37.878Z,17.60
2019-02-23T06:42:08.885Z,18.30
2019-02-23T06:44:40.327Z,17.43
2019-02-23T06:47:11.731Z,18.00
2019-02-23T06:49:42.585Z,17.50
2019-02-23T06:52:14.073Z,17.43
2019-02-23T06:54:45.412Z,17.67
2019-02-23T06:57:16.194Z,17.40
2019-02-23T06:59:47.295Z,18.63
2019-02-23T07:02:18.046Z,18.03
2019-02-23T07:04:49.030Z,19.40
2019-02-23T07:07:19.916Z,18.30
2019-02-23T07:09:50.927Z,18.43
2019-02-23T07:12:21.678Z,17.97
2019-02-23T07:14:52.941Z,17.40
2019-02-23T07:17:23.683Z,18.40
2019-02-23T07:19:56.526Z,18.40
2019-02-23T07:22:27.783Z,18.07
2019-02-23T07:24:58.778Z,18.43
2019-02-23T07:27:29.534Z,18.63
2019-02-23T07:30:00.649Z,19.30
2019-02-23T07:32:31.503Z,19.00
2019-02-23T07:35:02.689Z,18.67
2019-02-23T07:37:33.481Z,17.53
2019-02-23T07:40:04.782Z,17.53
2019-02-23T07:42:35.568Z,16.90
2019-02-23T07:45:06.751Z,17.50
2019-02-23T07:47:37.775Z,16.63
2019-02-23T07:50:09.044Z,17.93
2019-02-23T07:52:39.972Z,17.87
2019-02-23T07:55:11.145Z,17.80
2019-02-23T07:57:42.087Z,15.60
2019-02-23T08:00:12.927Z,17.07
2019-02-23T08:02:44.389Z,17.47
2019-02-23T08:05:15.935Z,16.77
2019-02-23T08:07:46.684Z,17.37
2019-02-23T08:10:17.801Z,16.73
2019-02-23T08:12:48.633Z,16.80
2019-02-23T08:15:19.662Z,16.87
2019-02-23T08:17:50.547Z,16.70
2019-02-23T08:20:21.320Z,17.67
2019-02-23T08:22:52.338Z,17.60
2019-02-23T08:25:23.176Z,16.63
2019-02-23T08:27:54.178Z,17.93
2019-02-23T08:30:25.522Z,16.80
2019-02-23T08:32:56.380Z,16.93
2019-02-23T08:35:27.431Z,16.80
2019-02-23T08:37:58.478Z,17.23
2019-02-23T08:40:29.490Z,16.13
2019-02-23T08:43:00.532Z,17.37
2019-02-23T08:45:31.677Z,17.00
2019-02-23T08:48:03.129Z,16.77
2019-02-23T08:50:34.215Z,17.37
2019-02-23T08:53:05.211Z,17.23
2019-02-23T08:55:36.360Z,16.27
2019-02-23T08:58:07.105Z,17.77
2019-02-23T09:00:38.094Z,17.33
2019-02-23T09:03:09.146Z,17.23
2019-02-23T09:05:39.943Z,16.27
2019-02-23T09:08:10.769Z,17.57
2019-02-23T09:10:41.643Z,16.83
2019-02-23T09:13:12.886Z,17.07
2019-02-23T09:15:44.233Z,17.83
2019-02-23T09:18:15.495Z,16.93
2019-02-23T09:20:46.276Z,16.43
2019-02-23T09:23:17.325Z,16.73
2019-02-23T09:25:48.320Z,16.73
2019-02-23T09:28:19.316Z,16.20
2019-02-23T09:30:51.146Z,16.67
2019-02-23T09:33:22.137Z,17.03
2019-02-23T09:35:53.200Z,16.93
2019-02-23T09:38:24.197Z,16.67
2019-02-23T09:40:54.948Z,15.90
2019-02-23T09:43:27.173Z,15.33
2019-02-23T09:45:58.005Z,15.27
2019-02-23T09:48:29.073Z,14.87
2019-02-23T09:51:00.055Z,14.90
2019-02-23T09:53:31.386Z,14.60
2019-02-23T09:56:02.618Z,13.70
2019-02-23T09:58:33.811Z,14.00
2019-02-23T10:01:05.512Z,12.40
2019-02-23T10:03:36.276Z,12.03
2019-02-23T10:06:07.524Z,14.80
2019-02-23T10:08:38.642Z,15.37
2019-02-23T10:11:09.405Z,13.50
2019-02-23T10:13:41.035Z,12.13
2019-02-23T10:16:12.361Z,13.17
2019-02-23T10:18:43.403Z,12.53
2019-02-23T10:21:14.523Z,13.10
2019-02-23T10:23:45.309Z,12.30
2019-02-23T10:26:16.295Z,12.07
2019-02-23T10:28:47.364Z,11.47
2019-02-23T10:31:18.356Z,12.00
2019-02-23T10:33:49.514Z,11.90
2019-02-23T10:36:20.513Z,11.83
2019-02-23T10:38:51.590Z,11.10
2019-02-23T10:41:22.358Z,9.70
2019-02-23T10:43:53.327Z,8.30
2019-02-23T10:46:24.304Z,7.43
2019-02-23T10:48:55.153Z,6.93
2019-02-23T10:51:26.157Z,7.47
2019-02-23T10:53:56.996Z,7.03
2019-02-23T10:56:27.851Z,7.07
2019-02-23T10:58:59.072Z,7.00
2019-02-23T11:01:29.897Z,6.97
2019-02-23T11:04:00.860Z,6.73
2019-02-23T11:06:31.978Z,6.30
2019-02-23T11:09:04.336Z,6.57
2019-02-23T11:11:36.786Z,6.20
2019-02-23T11:14:07.741Z,6.60
2019-02-23T11:16:38.809Z,6.50
2019-02-23T11:19:09.949Z,6.50
2019-02-23T11:21:41.237Z,6.30
2019-02-23T11:24:12.275Z,5.90
2019-02-23T11:26:43.292Z,6.80
2019-02-23T11:29:14.052Z,6.17
2019-02-23T11:31:45.918Z,6.70
2019-02-23T11:34:17.331Z,5.50
2019-02-23T11:36:48.509Z,5.47
2019-02-23T11:39:19.323Z,5.63
2019-02-23T11:41:50.457Z,5.63
2019-02-23T11:44:21.194Z,5.30
2019-02-23T11:47:00.044Z,4.93
2019-02-23T11:49:24.409Z,4.80
2019-02-23T11:51:55.232Z,4.60
2019-02-23T11:54:26.267Z,4.93
2019-02-23T11:56:57.265Z,4.87
2019-02-23T11:59:28.290Z,5.00
2019-02-23T12:01:59.262Z,4.90
2019-02-23T12:04:30.050Z,4.70
2019-02-23T12:07:00.795Z,5.40
2019-02-23T12:09:31.562Z,5.13
2019-02-23T12:12:02.533Z,7.13
2019-02-23T12:14:33.510Z,5.23
2019-02-23T12:17:04.333Z,4.40
2019-02-23T12:19:35.596Z,4.60
2019-02-23T12:22:12.374Z,4.43
2019-02-23T12:24:39.333Z,5.20
2019-02-23T12:27:10.146Z,4.57
2019-02-23T12:29:41.182Z,5.00
2019-02-23T12:32:12.520Z,5.47
2019-02-23T12:34:43.510Z,5.80
2019-02-23T12:37:14.338Z,5.23
2019-02-23T12:39:45.285Z,5.20
2019-02-23T12:42:16.023Z,5.17
2019-02-23T12:44:47.256Z,5.53
2019-02-23T12:47:18.111Z,5.07
2019-02-23T12:49:48.883Z,5.40
2019-02-23T12:52:19.944Z,6.00
2019-02-23T12:54:51.304Z,5.93
2019-02-23T12:57:22.332Z,6.37
2019-02-23T12:59:53.383Z,6.40
2019-02-23T13:02:24.129Z,5.43
2019-02-23T13:04:55.225Z,6.27
2019-02-23T13:07:26.063Z,6.30
2019-02-23T13:09:57.336Z,5.70
2019-02-23T13:13:05.659Z,5.50
2019-02-23T13:16:03.493Z,5.33
2019-02-23T13:19:20.991Z,5.90
2019-02-23T13:22:05.924Z,5.73
2019-02-23T13:25:05.869Z,5.63
2019-02-23T13:28:14.668Z,6.03
2019-02-23T13:31:34.109Z,5.37
2019-02-23T13:35:07.861Z,5.80
2019-02-23T13:38:06.527Z,5.70
2019-02-23T13:41:08.110Z,5.67
2019-02-23T13:44:28.233Z,6.10
2019-02-23T13:47:50.347Z,6.13
2019-02-23T13:51:09.412Z,6.33
2019-02-23T13:54:07.532Z,6.20
2019-02-23T13:57:22.350Z,6.40
2019-02-23T14:00:18.081Z,6.03
2019-02-23T14:03:51.857Z,5.90
2019-02-23T14:06:59.738Z,6.30
2019-02-23T14:10:10.479Z,5.70
2019-02-23T14:12:51.536Z,5.90
2019-02-23T14:15:44.352Z,6.40
2019-02-23T14:18:47.237Z,6.13
2019-02-23T14:22:13.300Z,6.83
2019-02-23T14:25:18.134Z,6.50
2019-02-23T14:28:24.187Z,6.30
2019-02-23T14:31:36.849Z,6.63
2019-02-23T14:34:34.094Z,6.53
2019-02-23T14:37:29.933Z,6.73
2019-02-23T14:40:44.274Z,6.43
2019-02-23T14:43:46.050Z,6.83
2019-02-23T14:46:58.417Z,6.60
2019-02-23T14:49:38.191Z,6.37
2019-02-23T14:52:35.039Z,6.40
2019-02-23T14:55:26.771Z,6.80
2019-02-23T14:58:25.874Z,5.93
2019-02-23T15:01:25.751Z,7.07
2019-02-23T15:04:45.404Z,7.00
2019-02-23T15:07:47.758Z,6.73
2019-02-23T15:10:59.299Z,6.30
2019-02-23T15:14:05.367Z,6.73
2019-02-23T15:17:19.053Z,6.23
2019-02-23T15:20:15.703Z,6.03
2019-02-23T15:23:25.086Z,6.47
2019-02-23T15:26:49.080Z,7.10
2019-02-23T15:29:48.131Z,7.00
2019-02-23T15:32:47.623Z,7.17
2019-02-23T15:36:10.311Z,6.83
2019-02-23T15:39:25.867Z,7.77
2019-02-23T15:42:25.924Z,8.27
2019-02-23T15:45:52.422Z,7.50
2019-02-23T15:48:44.145Z,8.27
2019-02-23T15:51:15.587Z,7.50
2019-02-23T15:53:46.631Z,8.00
2019-02-23T15:56:17.350Z,8.13
2019-02-23T15:58:48.394Z,8.20
2019-02-23T16:01:19.595Z,8.00
2019-02-23T16:03:50.675Z,8.23
2019-02-23T16:06:21.746Z,7.83
2019-02-23T16:08:52.944Z,8.23
2019-02-23T16:11:23.786Z,7.73
2019-02-23T16:13:54.600Z,8.10
2019-02-23T16:16:25.572Z,8.90
2019-02-23T16:18:56.301Z,8.83
2019-02-23T16:21:27.611Z,8.87
2019-02-23T16:23:58.798Z,8.67
2019-02-23T16:26:29.892Z,8.13
2019-02-23T16:29:01.024Z,8.93
2019-02-23T16:31:31.791Z,8.13
2019-02-23T16:34:02.539Z,8.43
2019-02-23T16:36:33.620Z,8.20
2019-02-23T16:39:09.520Z,9.37
2019-02-23T16:41:42.109Z,8.33
2019-02-23T16:44:13.176Z,9.13
2019-02-23T16:46:46.378Z,8.67
2019-02-23T16:49:17.548Z,9.20
2019-02-23T16:51:49.224Z,8.60
2019-02-23T16:54:19.983Z,9.10
2019-02-23T16:56:50.749Z,9.37
2019-02-23T16:59:21.836Z,9.33
2019-02-23T17:01:52.738Z,9.20
2019-02-23T17:04:24.333Z,8.57
2019-02-23T17:06:55.414Z,9.23
2019-02-23T17:09:26.269Z,8.83
2019-02-23T17:11:57.026Z,9.07
2019-02-23T17:14:27.834Z,9.37
2019-02-23T17:16:58.927Z,9.43
2019-02-23T17:19:29.966Z,9.60
2019-02-23T17:22:01.665Z,9.23
2019-02-23T17:24:32.874Z,8.90
2019-02-23T17:27:03.906Z,9.40
2019-02-23T17:29:34.820Z,9.80
2019-02-23T17:32:05.894Z,9.43
2019-02-23T17:34:36.938Z,9.13
2019-02-23T17:37:07.704Z,9.40
2019-02-23T17:39:38.448Z,8.67
2019-02-23T17:42:09.568Z,9.70
2019-02-23T17:44:40.716Z,8.40
2019-02-23T17:47:11.466Z,8.70
2019-02-23T17:49:42.432Z,9.73
2019-02-23T17:52:13.241Z,9.10
2019-02-23T17:54:44.480Z,9.10
2019-02-23T17:57:15.460Z,10.00
2019-02-23T17:59:46.430Z,9.33
2019-02-23T18:02:17.471Z,9.30
2019-02-23T18:04:48.216Z,9.17
2019-02-23T18:07:20.309Z,8.83
2019-02-23T18:09:52.545Z,8.77
2019-02-23T18:12:23.389Z,9.87
2019-02-23T18:14:54.431Z,9.17
2019-02-23T18:17:25.261Z,9.43
2019-02-23T18:19:56.912Z,8.90
2019-02-23T18:22:28.204Z,8.37
2019-02-23T18:24:59.045Z,8.37
2019-02-23T18:27:30.151Z,8.73
2019-02-23T18:30:10.758Z,8.63
2019-02-23T18:32:34.854Z,7.93
2019-02-23T18:35:05.905Z,7.67
2019-02-23T18:37:36.798Z,7.63
2019-02-23T18:40:07.777Z,8.17
2019-02-23T18:42:38.997Z,7.90
2019-02-23T18:45:09.975Z,8.27
2019-02-23T18:47:40.792Z,8.03
2019-02-23T18:50:11.672Z,8.30
2019-02-23T18:52:42.553Z,8.10
2019-02-23T18:55:13.441Z,7.63
2019-02-23T18:57:44.538Z,7.70
2019-02-23T19:00:23.997Z,7.67
2019-02-23T19:02:48.341Z,7.77
2019-02-23T19:05:19.958Z,7.80
2019-02-23T19:07:51.321Z,7.27
2019-02-23T19:10:22.696Z,7.77
2019-02-23T19:12:54.173Z,7.57
2019-02-23T19:15:25.224Z,7.87
2019-02-23T19:17:56.239Z,7.67
2019-02-23T19:20:27.139Z,7.43
2019-02-23T19:22:58.297Z,7.80
2019-02-23T19:25:30.115Z,7.07
2019-02-23T19:28:01.218Z,7.10
2019-02-23T19:30:32.422Z,7.30
2019-02-23T19:33:03.767Z,6.63
2019-02-23T19:35:34.832Z,6.40
2019-02-23T19:38:05.606Z,6.43
2019-02-23T19:40:36.965Z,6.30
2019-02-23T19:43:07.957Z,7.33
2019-02-23T19:45:39.076Z,7.60
2019-02-23T19:48:10.144Z,6.70
2019-02-23T19:50:44.352Z,6.50
2019-02-23T19:53:15.827Z,5.40
2019-02-23T19:55:46.917Z,5.80
2019-02-23T19:58:18.367Z,5.90
2019-02-23T20:00:49.109Z,5.00
2019-02-23T20:03:21.624Z,16.77
2019-02-23T20:05:52.975Z,9.80
2019-02-23T20:08:24.639Z,5.20
2019-02-23T20:10:55.837Z,5.77
2019-02-23T20:13:27.811Z,5.67
2019-02-23T20:15:58.544Z,5.17
2019-02-23T20:18:29.352Z,4.70
2019-02-23T20:21:00.155Z,5.30
2019-02-23T20:23:31.233Z,5.20
2019-02-23T20:26:02.196Z,5.50
2019-02-23T20:28:33.179Z,4.67
2019-02-23T20:31:03.907Z,5.03
2019-02-23T20:33:34.659Z,4.67
2019-02-23T20:36:05.871Z,4.83
2019-02-23T20:38:36.916Z,4.93
2019-02-23T20:41:08.119Z,4.90
2019-02-23T20:43:39.440Z,5.03
2019-02-23T20:46:11.261Z,4.60
2019-02-23T20:48:42.283Z,5.00
2019-02-23T20:51:13.021Z,4.80
2019-02-23T20:53:44.437Z,4.70
2019-02-23T20:56:15.168Z,4.90
2019-02-23T20:58:46.140Z,4.23
2019-02-23T21:01:17.107Z,5.00
2019-02-23T21:03:47.865Z,4.40
2019-02-23T21:06:18.879Z,4.40
2019-02-23T21:08:49.641Z,4.63
2019-02-23T21:11:20.364Z,4.73
2019-02-23T21:13:51.748Z,4.37
2019-02-23T21:16:22.730Z,4.33
2019-02-23T21:18:53.513Z,4.20
2019-02-23T21:21:24.484Z,4.50
2019-02-23T21:23:55.235Z,3.90
2019-02-23T21:26:26.318Z,4.53
2019-02-23T21:28:57.528Z,4.43
2019-02-23T21:31:28.270Z,4.40
2019-02-23T21:33:59.372Z,4.50
2019-02-23T21:36:30.109Z,4.17
2019-02-23T21:39:01.528Z,3.77
2019-02-23T21:41:34.221Z,4.40
2019-02-23T21:44:05.448Z,4.00
2019-02-23T21:46:36.127Z,4.07
2019-02-23T21:49:07.261Z,3.70
2019-02-23T21:51:37.995Z,3.87
2019-02-23T21:54:10.663Z,3.60
2019-02-23T21:56:41.844Z,3.80
2019-02-23T21:59:12.584Z,3.60
2019-02-23T22:01:43.664Z,3.53
2019-02-23T22:04:14.487Z,3.63
2019-02-23T22:06:45.868Z,3.50
2019-02-23T22:09:16.826Z,3.63
2019-02-23T22:11:47.554Z,3.20
2019-02-23T22:14:18.526Z,3.73
2019-02-23T22:16:49.518Z,3.50
2019-02-23T22:19:20.738Z,3.40
2019-02-23T22:21:51.474Z,3.50
2019-02-23T22:24:22.552Z,3.60
2019-02-23T22:26:53.282Z,3.40
2019-02-23T22:29:24.274Z,2.90
2019-02-23T22:31:55.244Z,2.90
2019-02-23T22:34:25.989Z,2.80
2019-02-23T22:36:57.289Z,3.00
2019-02-23T22:39:28.035Z,2.87
2019-02-23T22:41:58.950Z,2.90
2019-02-23T22:44:30.047Z,2.80
2019-02-23T22:47:01.099Z,2.63
2019-02-23T22:49:31.860Z,2.80
2019-02-23T22:52:02.613Z,2.77
2019-02-23T22:54:33.386Z,2.77
2019-02-23T22:57:04.473Z,2.17
2019-02-23T22:59:35.270Z,2.60
2019-02-23T23:02:06.017Z,2.37
2019-02-23T23:04:37.408Z,2.80
2019-02-23T23:07:08.815Z,3.10
2019-02-23T23:09:39.853Z,3.07
2019-02-23T23:12:10.904Z,2.30
2019-02-23T23:14:41.944Z,2.73
2019-02-23T23:17:13.261Z,2.70
2019-02-23T23:19:44.003Z,2.60
2019-02-23T23:22:15.229Z,2.93
2019-02-23T23:24:45.967Z,2.37
2019-02-23T23:27:17.111Z,2.87
2019-02-23T23:29:48.321Z,2.83
2019-02-23T23:32:20.433Z,2.97
2019-02-23T23:34:51.180Z,2.80
2019-02-23T23:37:21.938Z,2.83
2019-02-23T23:39:53.778Z,2.60
2019-02-23T23:42:24.606Z,3.10
2019-02-23T23:44:55.873Z,3.20
2019-02-23T23:47:26.624Z,3.10
2019-02-23T23:49:57.461Z,3.03
2019-02-23T23:52:28.257Z,2.93
2019-02-23T23:54:59.749Z,3.07
2019-02-23T23:57:30.978Z,3.10
